sensor_id;sensor_type;location;lat;lon;timestamp;temperature;humidity
67175;DHT22;54110;45.778;4.826;2022-08-07T00:00:57;31.90;41.90
67175;DHT22;54110;45.778;4.826;2022-08-07T00:03:23;31.90;41.70
67175;DHT22;54110;45.778;4.826;2022-08-07T00:05:48;31.90;41.90
67175;DHT22;54110;45.778;4.826;2022-08-07T00:08:14;31.90;41.80
67175;DHT22;54110;45.778;4.826;2022-08-07T00:10:40;31.90;41.80
67175;DHT22;54110;45.778;4.826;2022-08-07T00:13:06;31.90;41.80
67175;DHT22;54110;45.778;4.826;2022-08-07T00:15:33;31.90;41.70
67175;DHT22;54110;45.778;4.826;2022-08-07T00:17:59;31.90;41.80
67175;DHT22;54110;45.778;4.826;2022-08-07T00:20:25;31.90;41.90
67175;DHT22;54110;45.778;4.826;2022-08-07T00:22:50;31.90;41.60
67175;DHT22;54110;45.778;4.826;2022-08-07T00:25:16;31.90;41.50
67175;DHT22;54110;45.778;4.826;2022-08-07T00:27:42;31.90;41.60
67175;DHT22;54110;45.778;4.826;2022-08-07T00:30:09;31.90;41.60
67175;DHT22;54110;45.778;4.826;2022-08-07T00:32:36;31.90;41.80
67175;DHT22;54110;45.778;4.826;2022-08-07T00:35:03;31.90;42.20
67175;DHT22;54110;45.778;4.826;2022-08-07T00:37:28;31.80;42.20
67175;DHT22;54110;45.778;4.826;2022-08-07T00:39:54;31.80;42.30
67175;DHT22;54110;45.778;4.826;2022-08-07T00:42:20;31.80;42.40
67175;DHT22;54110;45.778;4.826;2022-08-07T00:44:46;31.90;42.60
67175;DHT22;54110;45.778;4.826;2022-08-07T00:47:12;31.80;42.40
67175;DHT22;54110;45.778;4.826;2022-08-07T00:49:39;31.80;42.00
67175;DHT22;54110;45.778;4.826;2022-08-07T00:52:05;31.80;42.40
67175;DHT22;54110;45.778;4.826;2022-08-07T00:54:31;31.80;42.40
67175;DHT22;54110;45.778;4.826;2022-08-07T00:56:57;31.80;42.50
67175;DHT22;54110;45.778;4.826;2022-08-07T00:59:23;31.80;42.40
67175;DHT22;54110;45.778;4.826;2022-08-07T01:01:49;31.80;42.30
67175;DHT22;54110;45.778;4.826;2022-08-07T01:04:15;31.80;42.10
67175;DHT22;54110;45.778;4.826;2022-08-07T01:06:43;31.80;41.90
67175;DHT22;54110;45.778;4.826;2022-08-07T01:09:09;31.80;41.70
67175;DHT22;54110;45.778;4.826;2022-08-07T01:11:35;31.80;41.70
67175;DHT22;54110;45.778;4.826;2022-08-07T01:14:01;31.80;41.90
67175;DHT22;54110;45.778;4.826;2022-08-07T01:16:27;31.80;41.80
67175;DHT22;54110;45.778;4.826;2022-08-07T01:18:53;31.70;41.70
67175;DHT22;54110;45.778;4.826;2022-08-07T01:21:21;31.80;42.00
67175;DHT22;54110;45.778;4.826;2022-08-07T01:23:47;31.80;42.00
67175;DHT22;54110;45.778;4.826;2022-08-07T01:26:14;31.80;41.90
67175;DHT22;54110;45.778;4.826;2022-08-07T01:28:41;31.80;42.10
67175;DHT22;54110;45.778;4.826;2022-08-07T01:31:07;31.80;42.10
67175;DHT22;54110;45.778;4.826;2022-08-07T01:33:34;31.80;42.20
67175;DHT22;54110;45.778;4.826;2022-08-07T01:36:00;31.70;41.80
67175;DHT22;54110;45.778;4.826;2022-08-07T01:38:28;31.70;41.70
67175;DHT22;54110;45.778;4.826;2022-08-07T01:40:57;31.80;41.70
67175;DHT22;54110;45.778;4.826;2022-08-07T01:43:23;31.70;41.70
67175;DHT22;54110;45.778;4.826;2022-08-07T01:45:49;31.70;41.90
67175;DHT22;54110;45.778;4.826;2022-08-07T01:48:15;31.70;41.80
67175;DHT22;54110;45.778;4.826;2022-08-07T01:50:41;31.70;41.60
67175;DHT22;54110;45.778;4.826;2022-08-07T01:53:10;31.70;41.30
67175;DHT22;54110;45.778;4.826;2022-08-07T01:55:44;31.70;41.70
67175;DHT22;54110;45.778;4.826;2022-08-07T01:58:12;31.70;41.70
67175;DHT22;54110;45.778;4.826;2022-08-07T02:00:40;31.70;41.60
67175;DHT22;54110;45.778;4.826;2022-08-07T02:03:11;31.70;41.70
67175;DHT22;54110;45.778;4.826;2022-08-07T02:05:42;31.70;41.70
67175;DHT22;54110;45.778;4.826;2022-08-07T02:08:11;31.70;42.10
67175;DHT22;54110;45.778;4.826;2022-08-07T02:10:39;31.70;42.00
67175;DHT22;54110;45.778;4.826;2022-08-07T02:13:06;31.70;42.00
67175;DHT22;54110;45.778;4.826;2022-08-07T02:15:35;31.60;42.00
67175;DHT22;54110;45.778;4.826;2022-08-07T02:18:02;31.70;42.00
67175;DHT22;54110;45.778;4.826;2022-08-07T02:20:29;31.70;41.80
67175;DHT22;54110;45.778;4.826;2022-08-07T02:23:00;31.70;42.00
67175;DHT22;54110;45.778;4.826;2022-08-07T02:25:28;31.60;42.10
67175;DHT22;54110;45.778;4.826;2022-08-07T02:27:58;31.70;42.00
67175;DHT22;54110;45.778;4.826;2022-08-07T02:30:25;31.70;42.30
67175;DHT22;54110;45.778;4.826;2022-08-07T02:32:51;31.60;42.20
67175;DHT22;54110;45.778;4.826;2022-08-07T02:35:19;31.70;42.30
67175;DHT22;54110;45.778;4.826;2022-08-07T02:37:46;31.70;42.40
67175;DHT22;54110;45.778;4.826;2022-08-07T02:40:12;31.60;42.30
67175;DHT22;54110;45.778;4.826;2022-08-07T02:42:38;31.70;42.20
67175;DHT22;54110;45.778;4.826;2022-08-07T02:45:09;31.70;42.00
67175;DHT22;54110;45.778;4.826;2022-08-07T02:47:36;31.70;42.10
67175;DHT22;54110;45.778;4.826;2022-08-07T02:50:02;31.70;42.20
67175;DHT22;54110;45.778;4.826;2022-08-07T02:52:31;31.70;42.20
67175;DHT22;54110;45.778;4.826;2022-08-07T02:55:04;31.70;42.20
67175;DHT22;54110;45.778;4.826;2022-08-07T02:57:31;31.70;42.10
67175;DHT22;54110;45.778;4.826;2022-08-07T02:59:59;31.60;42.00
67175;DHT22;54110;45.778;4.826;2022-08-07T03:02:27;31.60;41.50
67175;DHT22;54110;45.778;4.826;2022-08-07T03:04:54;31.60;41.60
67175;DHT22;54110;45.778;4.826;2022-08-07T03:07:20;31.60;41.60
67175;DHT22;54110;45.778;4.826;2022-08-07T03:09:46;31.60;41.60
67175;DHT22;54110;45.778;4.826;2022-08-07T03:12:12;31.60;41.70
67175;DHT22;54110;45.778;4.826;2022-08-07T03:14:40;31.60;41.80
67175;DHT22;54110;45.778;4.826;2022-08-07T03:17:07;31.60;41.90
67175;DHT22;54110;45.778;4.826;2022-08-07T03:19:35;31.60;41.80
67175;DHT22;54110;45.778;4.826;2022-08-07T03:22:03;31.60;41.60
67175;DHT22;54110;45.778;4.826;2022-08-07T03:24:30;31.50;41.80
67175;DHT22;54110;45.778;4.826;2022-08-07T03:26:58;31.60;41.70
67175;DHT22;54110;45.778;4.826;2022-08-07T03:29:26;31.60;41.60
67175;DHT22;54110;45.778;4.826;2022-08-07T03:31:52;31.50;41.50
67175;DHT22;54110;45.778;4.826;2022-08-07T03:34:18;31.50;41.70
67175;DHT22;54110;45.778;4.826;2022-08-07T03:36:46;31.60;41.80
67175;DHT22;54110;45.778;4.826;2022-08-07T03:39:13;31.50;41.50
67175;DHT22;54110;45.778;4.826;2022-08-07T03:41:40;31.50;41.50
67175;DHT22;54110;45.778;4.826;2022-08-07T03:44:06;31.50;41.60
67175;DHT22;54110;45.778;4.826;2022-08-07T03:46:32;31.50;41.60
67175;DHT22;54110;45.778;4.826;2022-08-07T03:48:59;31.50;41.70
67175;DHT22;54110;45.778;4.826;2022-08-07T03:51:25;31.50;41.70
67175;DHT22;54110;45.778;4.826;2022-08-07T03:53:53;31.50;41.50
67175;DHT22;54110;45.778;4.826;2022-08-07T03:56:20;31.50;41.60
67175;DHT22;54110;45.778;4.826;2022-08-07T03:58:47;31.50;41.50
67175;DHT22;54110;45.778;4.826;2022-08-07T04:01:15;31.40;41.30
67175;DHT22;54110;45.778;4.826;2022-08-07T04:03:41;31.40;41.50
67175;DHT22;54110;45.778;4.826;2022-08-07T04:06:07;31.50;41.50
67175;DHT22;54110;45.778;4.826;2022-08-07T04:08:33;31.50;41.60
67175;DHT22;54110;45.778;4.826;2022-08-07T04:11:01;31.50;41.50
67175;DHT22;54110;45.778;4.826;2022-08-07T04:13:28;31.50;41.20
67175;DHT22;54110;45.778;4.826;2022-08-07T04:15:53;31.50;41.40
67175;DHT22;54110;45.778;4.826;2022-08-07T04:18:19;31.50;41.30
67175;DHT22;54110;45.778;4.826;2022-08-07T04:20:45;31.50;41.30
67175;DHT22;54110;45.778;4.826;2022-08-07T04:23:11;31.50;41.60
67175;DHT22;54110;45.778;4.826;2022-08-07T04:25:39;31.50;41.50
67175;DHT22;54110;45.778;4.826;2022-08-07T04:28:07;31.50;41.50
67175;DHT22;54110;45.778;4.826;2022-08-07T04:30:34;31.40;41.50
67175;DHT22;54110;45.778;4.826;2022-08-07T04:33:00;31.50;41.40
67175;DHT22;54110;45.778;4.826;2022-08-07T04:35:30;31.40;41.20
67175;DHT22;54110;45.778;4.826;2022-08-07T04:37:56;31.40;41.30
67175;DHT22;54110;45.778;4.826;2022-08-07T04:40:22;31.40;41.50
67175;DHT22;54110;45.778;4.826;2022-08-07T04:42:48;31.50;41.30
67175;DHT22;54110;45.778;4.826;2022-08-07T04:45:16;31.40;41.10
67175;DHT22;54110;45.778;4.826;2022-08-07T04:47:49;31.40;41.10
67175;DHT22;54110;45.778;4.826;2022-08-07T04:50:24;31.40;40.80
67175;DHT22;54110;45.778;4.826;2022-08-07T04:52:58;31.50;40.80
67175;DHT22;54110;45.778;4.826;2022-08-07T04:55:36;31.40;40.70
67175;DHT22;54110;45.778;4.826;2022-08-07T04:58:13;31.40;40.80
67175;DHT22;54110;45.778;4.826;2022-08-07T05:00:49;31.40;40.50
67175;DHT22;54110;45.778;4.826;2022-08-07T05:03:20;31.40;40.40
67175;DHT22;54110;45.778;4.826;2022-08-07T05:05:52;31.40;39.80
67175;DHT22;54110;45.778;4.826;2022-08-07T05:08:21;31.30;39.10
67175;DHT22;54110;45.778;4.826;2022-08-07T05:10:51;31.30;39.10
67175;DHT22;54110;45.778;4.826;2022-08-07T05:13:26;31.40;39.10
67175;DHT22;54110;45.778;4.826;2022-08-07T05:15:55;31.30;39.70
67175;DHT22;54110;45.778;4.826;2022-08-07T05:18:28;31.30;38.70
67175;DHT22;54110;45.778;4.826;2022-08-07T05:20:58;31.30;38.20
67175;DHT22;54110;45.778;4.826;2022-08-07T05:23:31;31.30;38.60
67175;DHT22;54110;45.778;4.826;2022-08-07T05:25:59;31.40;38.90
67175;DHT22;54110;45.778;4.826;2022-08-07T05:28:26;31.30;38.30
67175;DHT22;54110;45.778;4.826;2022-08-07T05:30:55;31.30;38.10
67175;DHT22;54110;45.778;4.826;2022-08-07T05:33:22;31.30;37.70
67175;DHT22;54110;45.778;4.826;2022-08-07T05:35:49;31.30;37.10
67175;DHT22;54110;45.778;4.826;2022-08-07T05:38:16;31.20;36.90
67175;DHT22;54110;45.778;4.826;2022-08-07T05:40:42;31.20;36.40
67175;DHT22;54110;45.778;4.826;2022-08-07T05:43:08;31.20;35.80
67175;DHT22;54110;45.778;4.826;2022-08-07T05:45:34;31.10;35.90
67175;DHT22;54110;45.778;4.826;2022-08-07T05:48:02;31.10;35.60
67175;DHT22;54110;45.778;4.826;2022-08-07T05:50:30;31.10;34.70
67175;DHT22;54110;45.778;4.826;2022-08-07T05:52:56;31.00;35.10
67175;DHT22;54110;45.778;4.826;2022-08-07T05:55:22;31.00;35.30
67175;DHT22;54110;45.778;4.826;2022-08-07T05:57:49;31.00;35.30
67175;DHT22;54110;45.778;4.826;2022-08-07T06:00:16;31.10;34.80
67175;DHT22;54110;45.778;4.826;2022-08-07T06:02:45;31.00;34.60
67175;DHT22;54110;45.778;4.826;2022-08-07T06:05:14;31.00;34.90
67175;DHT22;54110;45.778;4.826;2022-08-07T06:07:41;31.00;35.20
67175;DHT22;54110;45.778;4.826;2022-08-07T06:10:08;31.00;34.80
67175;DHT22;54110;45.778;4.826;2022-08-07T06:12:35;31.00;34.60
67175;DHT22;54110;45.778;4.826;2022-08-07T06:15:01;31.00;34.80
67175;DHT22;54110;45.778;4.826;2022-08-07T06:17:27;31.00;34.40
67175;DHT22;54110;45.778;4.826;2022-08-07T06:19:53;31.00;34.60
67175;DHT22;54110;45.778;4.826;2022-08-07T06:22:22;31.00;35.00
67175;DHT22;54110;45.778;4.826;2022-08-07T06:24:49;31.10;35.10
67175;DHT22;54110;45.778;4.826;2022-08-07T06:27:20;31.00;34.90
67175;DHT22;54110;45.778;4.826;2022-08-07T06:29:45;31.10;34.80
67175;DHT22;54110;45.778;4.826;2022-08-07T06:32:11;31.10;35.00
67175;DHT22;54110;45.778;4.826;2022-08-07T06:34:37;31.10;35.40
67175;DHT22;54110;45.778;4.826;2022-08-07T06:37:03;31.10;35.70
67175;DHT22;54110;45.778;4.826;2022-08-07T06:39:30;31.10;35.90
67175;DHT22;54110;45.778;4.826;2022-08-07T06:42:00;31.20;36.00
67175;DHT22;54110;45.778;4.826;2022-08-07T06:44:27;31.20;36.10
67175;DHT22;54110;45.778;4.826;2022-08-07T06:46:54;31.20;36.40
67175;DHT22;54110;45.778;4.826;2022-08-07T06:49:20;31.30;36.50
67175;DHT22;54110;45.778;4.826;2022-08-07T06:51:46;31.30;36.70
67175;DHT22;54110;45.778;4.826;2022-08-07T06:54:14;31.30;36.60
67175;DHT22;54110;45.778;4.826;2022-08-07T06:56:44;31.30;36.80
67175;DHT22;54110;45.778;4.826;2022-08-07T06:59:13;31.30;37.20
67175;DHT22;54110;45.778;4.826;2022-08-07T07:01:41;31.30;37.40
67175;DHT22;54110;45.778;4.826;2022-08-07T07:04:07;31.30;37.50
67175;DHT22;54110;45.778;4.826;2022-08-07T07:06:33;31.30;37.60
67175;DHT22;54110;45.778;4.826;2022-08-07T07:09:16;31.30;36.70
67175;DHT22;54110;45.778;4.826;2022-08-07T07:11:52;31.30;36.30
67175;DHT22;54110;45.778;4.826;2022-08-07T07:14:23;31.30;36.20
67175;DHT22;54110;45.778;4.826;2022-08-07T07:16:52;31.20;36.00
67175;DHT22;54110;45.778;4.826;2022-08-07T07:19:24;31.20;35.80
67175;DHT22;54110;45.778;4.826;2022-08-07T07:21:52;31.20;35.90
67175;DHT22;54110;45.778;4.826;2022-08-07T07:24:18;31.20;35.90
67175;DHT22;54110;45.778;4.826;2022-08-07T07:26:46;31.20;36.10
67175;DHT22;54110;45.778;4.826;2022-08-07T07:29:14;31.20;36.30
67175;DHT22;54110;45.778;4.826;2022-08-07T07:31:43;31.20;36.60
67175;DHT22;54110;45.778;4.826;2022-08-07T07:34:16;31.20;36.80
67175;DHT22;54110;45.778;4.826;2022-08-07T07:36:43;31.30;35.60
67175;DHT22;54110;45.778;4.826;2022-08-07T07:39:11;31.20;35.20
67175;DHT22;54110;45.778;4.826;2022-08-07T07:41:40;31.10;35.40
67175;DHT22;54110;45.778;4.826;2022-08-07T07:44:11;31.10;35.70
67175;DHT22;54110;45.778;4.826;2022-08-07T07:46:39;31.20;35.90
67175;DHT22;54110;45.778;4.826;2022-08-07T07:49:07;31.20;35.90
67175;DHT22;54110;45.778;4.826;2022-08-07T07:51:36;31.30;36.10
67175;DHT22;54110;45.778;4.826;2022-08-07T07:54:04;31.40;36.20
67175;DHT22;54110;45.778;4.826;2022-08-07T07:56:32;31.40;36.10
67175;DHT22;54110;45.778;4.826;2022-08-07T07:59:00;31.40;35.90
67175;DHT22;54110;45.778;4.826;2022-08-07T08:01:27;31.40;35.70
67175;DHT22;54110;45.778;4.826;2022-08-07T08:03:55;31.40;35.70
67175;DHT22;54110;45.778;4.826;2022-08-07T08:06:23;31.50;35.80
67175;DHT22;54110;45.778;4.826;2022-08-07T08:08:50;31.50;35.60
67175;DHT22;54110;45.778;4.826;2022-08-07T08:11:17;31.50;35.40
67175;DHT22;54110;45.778;4.826;2022-08-07T08:13:47;31.50;35.40
67175;DHT22;54110;45.778;4.826;2022-08-07T08:16:15;31.50;35.30
67175;DHT22;54110;45.778;4.826;2022-08-07T08:18:44;31.50;35.70
67175;DHT22;54110;45.778;4.826;2022-08-07T08:21:10;31.50;36.10
67175;DHT22;54110;45.778;4.826;2022-08-07T08:23:38;31.50;36.40
67175;DHT22;54110;45.778;4.826;2022-08-07T08:26:05;31.60;36.70
67175;DHT22;54110;45.778;4.826;2022-08-07T08:28:35;31.60;36.90
67175;DHT22;54110;45.778;4.826;2022-08-07T08:31:03;31.60;36.90
67175;DHT22;54110;45.778;4.826;2022-08-07T08:33:32;31.60;36.90
67175;DHT22;54110;45.778;4.826;2022-08-07T08:36:00;31.60;36.90
67175;DHT22;54110;45.778;4.826;2022-08-07T08:38:42;31.60;37.10
67175;DHT22;54110;45.778;4.826;2022-08-07T08:41:13;31.70;37.20
67175;DHT22;54110;45.778;4.826;2022-08-07T08:43:49;31.60;37.40
67175;DHT22;54110;45.778;4.826;2022-08-07T08:46:25;31.70;37.50
67175;DHT22;54110;45.778;4.826;2022-08-07T08:48:58;31.60;37.60
67175;DHT22;54110;45.778;4.826;2022-08-07T08:51:31;31.60;37.70
67175;DHT22;54110;45.778;4.826;2022-08-07T08:54:05;31.60;37.80
67175;DHT22;54110;45.778;4.826;2022-08-07T08:56:35;31.60;37.90
67175;DHT22;54110;45.778;4.826;2022-08-07T08:59:06;31.60;38.00
67175;DHT22;54110;45.778;4.826;2022-08-07T09:01:42;31.60;38.10
67175;DHT22;54110;45.778;4.826;2022-08-07T09:04:15;31.60;38.00
67175;DHT22;54110;45.778;4.826;2022-08-07T09:06:51;31.70;38.20
67175;DHT22;54110;45.778;4.826;2022-08-07T09:09:39;31.70;38.20
67175;DHT22;54110;45.778;4.826;2022-08-07T09:12:14;31.70;38.20
67175;DHT22;54110;45.778;4.826;2022-08-07T09:14:50;31.60;38.40
67175;DHT22;54110;45.778;4.826;2022-08-07T09:17:28;31.60;38.30
67175;DHT22;54110;45.778;4.826;2022-08-07T09:19:58;31.60;38.40
67175;DHT22;54110;45.778;4.826;2022-08-07T09:22:43;31.60;38.40
67175;DHT22;54110;45.778;4.826;2022-08-07T09:25:12;31.60;38.30
67175;DHT22;54110;45.778;4.826;2022-08-07T09:27:45;31.60;38.40
67175;DHT22;54110;45.778;4.826;2022-08-07T09:30:16;31.60;38.30
67175;DHT22;54110;45.778;4.826;2022-08-07T09:33:05;31.60;38.30
67175;DHT22;54110;45.778;4.826;2022-08-07T09:35:39;31.70;38.20
67175;DHT22;54110;45.778;4.826;2022-08-07T09:38:15;31.60;38.20
67175;DHT22;54110;45.778;4.826;2022-08-07T09:41:02;31.70;38.50
67175;DHT22;54110;45.778;4.826;2022-08-07T09:43:40;31.70;37.50
67175;DHT22;54110;45.778;4.826;2022-08-07T09:46:17;31.70;37.70
67175;DHT22;54110;45.778;4.826;2022-08-07T09:48:53;31.60;38.00
67175;DHT22;54110;45.778;4.826;2022-08-07T09:51:39;31.60;38.20
67175;DHT22;54110;45.778;4.826;2022-08-07T09:54:11;31.70;38.20
67175;DHT22;54110;45.778;4.826;2022-08-07T09:59:47;31.50;38.20
67175;DHT22;54110;45.778;4.826;2022-08-07T10:02:29;31.50;37.30
67175;DHT22;54110;45.778;4.826;2022-08-07T10:11:13;31.60;37.00
67175;DHT22;54110;45.778;4.826;2022-08-07T10:13:49;31.60;36.90
67175;DHT22;54110;45.778;4.826;2022-08-07T10:16:33;31.60;36.50
67175;DHT22;54110;45.778;4.826;2022-08-07T10:19:21;31.60;36.20
67175;DHT22;54110;45.778;4.826;2022-08-07T10:21:58;31.60;36.50
67175;DHT22;54110;45.778;4.826;2022-08-07T10:24:50;31.50;36.80
67175;DHT22;54110;45.778;4.826;2022-08-07T10:27:31;31.70;36.60
67175;DHT22;54110;45.778;4.826;2022-08-07T10:30:05;31.60;36.60
67175;DHT22;54110;45.778;4.826;2022-08-07T10:35:45;31.60;36.30
67175;DHT22;54110;45.778;4.826;2022-08-07T10:38:36;31.60;36.20
67175;DHT22;54110;45.778;4.826;2022-08-07T10:41:08;31.60;36.20
67175;DHT22;54110;45.778;4.826;2022-08-07T10:43:43;31.60;36.60
67175;DHT22;54110;45.778;4.826;2022-08-07T10:46:18;31.60;36.70
67175;DHT22;54110;45.778;4.826;2022-08-07T10:48:54;31.60;36.60
67175;DHT22;54110;45.778;4.826;2022-08-07T10:51:27;31.60;36.90
67175;DHT22;54110;45.778;4.826;2022-08-07T10:54:05;31.60;36.90
67175;DHT22;54110;45.778;4.826;2022-08-07T10:56:42;31.60;36.90
67175;DHT22;54110;45.778;4.826;2022-08-07T10:59:19;31.70;36.90
67175;DHT22;54110;45.778;4.826;2022-08-07T11:01:56;31.60;36.90
67175;DHT22;54110;45.778;4.826;2022-08-07T11:04:36;31.60;36.90
67175;DHT22;54110;45.778;4.826;2022-08-07T11:07:07;31.70;36.90
67175;DHT22;54110;45.778;4.826;2022-08-07T11:09:46;31.60;37.00
67175;DHT22;54110;45.778;4.826;2022-08-07T11:12:16;31.70;36.80
67175;DHT22;54110;45.778;4.826;2022-08-07T11:14:50;31.60;36.90
67175;DHT22;54110;45.778;4.826;2022-08-07T11:17:25;31.60;36.90
67175;DHT22;54110;45.778;4.826;2022-08-07T11:19:57;31.60;36.90
67175;DHT22;54110;45.778;4.826;2022-08-07T11:22:26;31.60;37.00
67175;DHT22;54110;45.778;4.826;2022-08-07T11:24:57;31.60;36.80
67175;DHT22;54110;45.778;4.826;2022-08-07T11:27:31;31.60;36.80
67175;DHT22;54110;45.778;4.826;2022-08-07T11:30:03;31.60;36.90
67175;DHT22;54110;45.778;4.826;2022-08-07T11:32:35;31.60;36.70
67175;DHT22;54110;45.778;4.826;2022-08-07T11:35:06;31.70;36.80
67175;DHT22;54110;45.778;4.826;2022-08-07T11:38:06;31.60;36.90
67175;DHT22;54110;45.778;4.826;2022-08-07T11:40:47;31.70;37.00
67175;DHT22;54110;45.778;4.826;2022-08-07T11:43:18;31.70;37.00
67175;DHT22;54110;45.778;4.826;2022-08-07T11:46:04;31.60;36.90
67175;DHT22;54110;45.778;4.826;2022-08-07T11:48:46;31.70;36.80
67175;DHT22;54110;45.778;4.826;2022-08-07T11:51:27;31.60;36.70
67175;DHT22;54110;45.778;4.826;2022-08-07T11:53:59;31.60;36.50
67175;DHT22;54110;45.778;4.826;2022-08-07T11:56:40;31.60;36.80
67175;DHT22;54110;45.778;4.826;2022-08-07T11:59:28;31.60;37.00
67175;DHT22;54110;45.778;4.826;2022-08-07T12:01:59;31.60;36.80
67175;DHT22;54110;45.778;4.826;2022-08-07T12:04:45;31.50;36.90
67175;DHT22;54110;45.778;4.826;2022-08-07T12:07:24;31.50;35.80
67175;DHT22;54110;45.778;4.826;2022-08-07T12:09:56;31.40;35.60
67175;DHT22;54110;45.778;4.826;2022-08-07T12:12:26;31.30;35.60
67175;DHT22;54110;45.778;4.826;2022-08-07T12:14:57;31.30;35.90
67175;DHT22;54110;45.778;4.826;2022-08-07T12:17:31;31.30;36.10
67175;DHT22;54110;45.778;4.826;2022-08-07T12:20:03;31.40;35.70
67175;DHT22;54110;45.778;4.826;2022-08-07T12:22:36;31.40;35.60
67175;DHT22;54110;45.778;4.826;2022-08-07T12:25:09;31.30;35.60
67175;DHT22;54110;45.778;4.826;2022-08-07T12:27:39;31.20;35.90
67175;DHT22;54110;45.778;4.826;2022-08-07T12:30:09;31.20;36.40
67175;DHT22;54110;45.778;4.826;2022-08-07T12:32:40;31.20;36.60
67175;DHT22;54110;45.778;4.826;2022-08-07T12:35:10;31.20;36.30
67175;DHT22;54110;45.778;4.826;2022-08-07T12:37:37;31.20;36.40
67175;DHT22;54110;45.778;4.826;2022-08-07T12:40:06;31.30;36.80
67175;DHT22;54110;45.778;4.826;2022-08-07T12:42:33;31.30;37.10
67175;DHT22;54110;45.778;4.826;2022-08-07T12:45:05;31.30;37.20
67175;DHT22;54110;45.778;4.826;2022-08-07T12:47:39;31.40;37.30
67175;DHT22;54110;45.778;4.826;2022-08-07T12:50:19;31.40;37.30
67175;DHT22;54110;45.778;4.826;2022-08-07T12:52:50;31.50;37.30
67175;DHT22;54110;45.778;4.826;2022-08-07T12:55:25;31.40;37.00
67175;DHT22;54110;45.778;4.826;2022-08-07T12:57:53;31.50;37.50
67175;DHT22;54110;45.778;4.826;2022-08-07T13:00:26;31.50;37.60
67175;DHT22;54110;45.778;4.826;2022-08-07T13:03:20;31.50;37.50
67175;DHT22;54110;45.778;4.826;2022-08-07T13:05:57;31.50;37.50
67175;DHT22;54110;45.778;4.826;2022-08-07T13:08:39;31.50;38.10
67175;DHT22;54110;45.778;4.826;2022-08-07T13:11:20;31.50;38.40
67175;DHT22;54110;45.778;4.826;2022-08-07T13:13:57;31.50;38.50
67175;DHT22;54110;45.778;4.826;2022-08-07T13:16:31;31.50;38.80
67175;DHT22;54110;45.778;4.826;2022-08-07T13:19:14;31.50;38.90
67175;DHT22;54110;45.778;4.826;2022-08-07T13:21:42;31.60;39.00
67175;DHT22;54110;45.778;4.826;2022-08-07T13:24:17;31.50;39.20
67175;DHT22;54110;45.778;4.826;2022-08-07T13:26:48;31.60;39.00
67175;DHT22;54110;45.778;4.826;2022-08-07T13:29:20;31.50;38.90
67175;DHT22;54110;45.778;4.826;2022-08-07T13:31:50;31.50;38.80
67175;DHT22;54110;45.778;4.826;2022-08-07T13:34:24;31.50;38.80
67175;DHT22;54110;45.778;4.826;2022-08-07T13:36:56;31.60;38.70
67175;DHT22;54110;45.778;4.826;2022-08-07T13:39:28;31.60;38.70
67175;DHT22;54110;45.778;4.826;2022-08-07T13:41:55;31.60;38.60
67175;DHT22;54110;45.778;4.826;2022-08-07T13:44:24;31.50;38.50
67175;DHT22;54110;45.778;4.826;2022-08-07T13:46:56;31.60;38.50
67175;DHT22;54110;45.778;4.826;2022-08-07T13:49:27;31.60;38.50
67175;DHT22;54110;45.778;4.826;2022-08-07T13:51:53;31.60;38.40
67175;DHT22;54110;45.778;4.826;2022-08-07T13:54:20;31.60;38.40
67175;DHT22;54110;45.778;4.826;2022-08-07T13:56:53;31.60;38.40
67175;DHT22;54110;45.778;4.826;2022-08-07T13:59:23;31.60;38.40
67175;DHT22;54110;45.778;4.826;2022-08-07T14:01:52;31.60;38.40
67175;DHT22;54110;45.778;4.826;2022-08-07T14:04:19;31.70;38.40
67175;DHT22;54110;45.778;4.826;2022-08-07T14:06:51;31.60;38.30
67175;DHT22;54110;45.778;4.826;2022-08-07T14:09:20;31.70;38.30
67175;DHT22;54110;45.778;4.826;2022-08-07T14:11:49;31.60;38.30
67175;DHT22;54110;45.778;4.826;2022-08-07T14:14:17;31.60;38.20
67175;DHT22;54110;45.778;4.826;2022-08-07T14:16:45;31.60;38.10
67175;DHT22;54110;45.778;4.826;2022-08-07T14:19:16;31.60;38.00
67175;DHT22;54110;45.778;4.826;2022-08-07T14:21:46;31.70;38.00
67175;DHT22;54110;45.778;4.826;2022-08-07T14:24:19;31.70;38.10
67175;DHT22;54110;45.778;4.826;2022-08-07T14:26:49;31.70;37.90
67175;DHT22;54110;45.778;4.826;2022-08-07T14:29:18;31.60;37.60
67175;DHT22;54110;45.778;4.826;2022-08-07T14:31:46;31.60;37.50
67175;DHT22;54110;45.778;4.826;2022-08-07T14:34:13;31.60;37.70
67175;DHT22;54110;45.778;4.826;2022-08-07T14:36:40;31.70;37.90
67175;DHT22;54110;45.778;4.826;2022-08-07T14:39:07;31.70;37.90
67175;DHT22;54110;45.778;4.826;2022-08-07T14:41:35;31.70;37.90
67175;DHT22;54110;45.778;4.826;2022-08-07T14:44:04;31.60;37.90
67175;DHT22;54110;45.778;4.826;2022-08-07T14:46:32;31.70;37.90
67175;DHT22;54110;45.778;4.826;2022-08-07T14:49:01;31.70;38.60
67175;DHT22;54110;45.778;4.826;2022-08-07T14:51:27;31.70;38.00
67175;DHT22;54110;45.778;4.826;2022-08-07T14:54:14;31.70;38.00
67175;DHT22;54110;45.778;4.826;2022-08-07T14:56:41;31.70;38.00
67175;DHT22;54110;45.778;4.826;2022-08-07T14:59:11;31.60;38.00
67175;DHT22;54110;45.778;4.826;2022-08-07T15:01:38;31.70;38.10
67175;DHT22;54110;45.778;4.826;2022-08-07T15:04:05;31.60;38.10
67175;DHT22;54110;45.778;4.826;2022-08-07T15:06:34;31.60;38.10
67175;DHT22;54110;45.778;4.826;2022-08-07T15:09:02;31.70;38.10
67175;DHT22;54110;45.778;4.826;2022-08-07T15:11:32;31.70;38.10
67175;DHT22;54110;45.778;4.826;2022-08-07T15:14:05;31.70;38.10
67175;DHT22;54110;45.778;4.826;2022-08-07T15:16:35;31.60;38.10
67175;DHT22;54110;45.778;4.826;2022-08-07T15:19:04;31.70;38.10
67175;DHT22;54110;45.778;4.826;2022-08-07T15:21:34;31.70;38.10
67175;DHT22;54110;45.778;4.826;2022-08-07T15:24:05;31.70;38.10
67175;DHT22;54110;45.778;4.826;2022-08-07T15:26:35;31.70;38.20
67175;DHT22;54110;45.778;4.826;2022-08-07T15:29:04;31.70;38.10
67175;DHT22;54110;45.778;4.826;2022-08-07T15:31:34;31.70;38.20
67175;DHT22;54110;45.778;4.826;2022-08-07T15:34:01;31.60;38.10
67175;DHT22;54110;45.778;4.826;2022-08-07T15:36:28;31.60;37.90
67175;DHT22;54110;45.778;4.826;2022-08-07T15:38:54;31.70;38.00
67175;DHT22;54110;45.778;4.826;2022-08-07T15:41:23;31.70;38.20
67175;DHT22;54110;45.778;4.826;2022-08-07T15:44:00;31.70;38.30
67175;DHT22;54110;45.778;4.826;2022-08-07T15:46:28;31.70;38.40
67175;DHT22;54110;45.778;4.826;2022-08-07T15:48:56;31.70;38.60
67175;DHT22;54110;45.778;4.826;2022-08-07T15:51:24;31.70;38.70
67175;DHT22;54110;45.778;4.826;2022-08-07T15:53:54;31.70;38.80
67175;DHT22;54110;45.778;4.826;2022-08-07T15:56:23;31.70;39.10
67175;DHT22;54110;45.778;4.826;2022-08-07T15:58:57;31.70;39.10
67175;DHT22;54110;45.778;4.826;2022-08-07T16:01:25;31.70;39.00